CheckWX is a tool to help pilots better visualize weather data.  It is not intended as a substitute for an official pre-flight weather briefing.

19:16:12 UTC

KHHR METAR
Jack Northrop Field / Hawthorne Municipal Airport
Hawthorne, California, USA
Current

23 mins ago

KHHR 161853Z 00000KT 7SM CLR 17/09 A3012 RMK AO2 SLP200 T01670094 $
Observed
Feb-16 @ 18:53 UTC
Visibility
7 SM
Flight Rules
VFR
Cloud Levels
  • Clear skies
Temperature
17°C / 63°F
Dewpoint
C / 48°F
Humidity
59%
Altimeter
30.12" Hg
Pressure
1020.02 hPa
Previous

1 hour ago

KHHR 161753Z 22003KT 3SM HZ FEW006 13/11 A3015 RMK AO2 SLP208 T01330106 10139 20111 58003 $
Observed
Feb-16 @ 17:53 UTC
Wind
  • 220° at 3 KTS
Visibility
3 SM
Flight Rules
MVFR
Conditions
Haze
Cloud Levels
  • Few at 600' AGL
Temperature
13°C / 55°F
Dewpoint
11°C / 52°F
Humidity
88%
Altimeter
30.15" Hg
Pressure
1021.02 hPa
Previous

2 hours ago

KHHR 161730Z 00000KT 3SM BR SCT004 12/10 A3015 RMK AO2 T01220100 $
Observed
Feb-16 @ 17:30 UTC
Visibility
3 SM
Flight Rules
MVFR
Conditions
Mist
Cloud Levels
  • Scattered at 400' AGL
Temperature
12°C / 54°F
Dewpoint
10°C / 50°F
Humidity
88%
Altimeter
30.15" Hg
Pressure
1021.02 hPa